Time;durP1;ratioP1;P1;durP2;ratioP2;P2;SDS_P1;SDS_P2;PMS_P1;PMS_P2;Temp;Humidity;BMP_temperature;BMP_pressure;BME280_temperature;BME280_humidity;BME280_pressure;Samples;Min_cycle;Max_cycle;Signal;HPM_P1;HPM_P2
2021/08/28 00:00:12;;;;;;;31.20;20.97;;;14.50;99.90;;;;;;5046494;28;20202;-71
2021/08/28 00:02:37;;;;;;;31.67;23.50;;;14.50;99.90;;;;;;5033191;28;20171;-71
2021/08/28 00:05:03;;;;;;;31.00;21.70;;;14.50;99.90;;;;;;5034300;28;20429;-71
2021/08/28 00:07:29;;;;;;;34.87;22.67;;;14.50;99.90;;;;;;5033316;28;20191;-71
2021/08/28 00:09:54;;;;;;;34.50;22.03;;;14.50;99.90;;;;;;5033262;28;20430;-71
2021/08/28 00:12:20;;;;;;;37.27;23.17;;;14.50;99.90;;;;;;5032932;28;20206;-71
2021/08/28 00:14:46;;;;;;;33.57;23.27;;;14.40;99.90;;;;;;5033334;28;20162;-71
2021/08/28 00:17:11;;;;;;;35.23;21.10;;;14.40;99.90;;;;;;5033210;28;20192;-71
2021/08/28 00:19:37;;;;;;;32.00;22.67;;;14.40;99.90;;;;;;5033070;28;20261;-71
2021/08/28 00:22:02;;;;;;;32.57;20.67;;;14.40;99.90;;;;;;5046544;28;20183;-71
2021/08/28 00:24:28;;;;;;;34.93;22.80;;;14.40;99.90;;;;;;5051745;28;20178;-71
2021/08/28 00:26:54;;;;;;;37.00;22.30;;;14.50;99.90;;;;;;5052901;28;20178;-71
2021/08/28 00:29:19;;;;;;;34.73;23.53;;;14.50;99.90;;;;;;5034135;28;20586;-71
2021/08/28 00:31:45;;;;;;;35.10;21.63;;;14.50;99.90;;;;;;5034881;28;20203;-71
2021/08/28 00:34:11;;;;;;;37.00;23.53;;;14.50;99.90;;;;;;5033040;28;20613;-71
2021/08/28 00:36:36;;;;;;;31.77;22.23;;;14.50;99.90;;;;;;5033019;28;20164;-71
2021/08/28 00:39:02;;;;;;;31.27;22.30;;;14.60;99.90;;;;;;5034153;28;20418;-72
2021/08/28 00:41:28;;;;;;;32.70;22.80;;;14.60;99.90;;;;;;5032432;28;20206;-71
2021/08/28 00:43:54;;;;;;;34.03;22.27;;;14.60;99.90;;;;;;5033181;28;20435;-71
2021/08/28 00:46:19;;;;;;;34.27;22.73;;;14.60;99.90;;;;;;5032948;28;20254;-71
2021/08/28 00:48:45;;;;;;;33.57;23.20;;;14.60;99.90;;;;;;5032885;28;20222;-71
2021/08/28 00:51:11;;;;;;;34.07;22.87;;;14.60;99.90;;;;;;5032483;28;20160;-71
2021/08/28 00:53:37;;;;;;;36.13;22.83;;;14.60;99.90;;;;;;5032520;28;20221;-71
2021/08/28 00:56:03;;;;;;;33.70;22.23;;;14.70;99.90;;;;;;5034004;28;20905;-71
2021/08/28 00:58:28;;;;;;;34.47;18.27;;;14.70;99.90;;;;;;5032697;28;20248;-71
2021/08/28 01:00:58;;;;;;;30.20;18.57;;;14.70;99.90;;;;;;5032264;28;20175;-72
2021/08/28 01:03:26;;;;;;;27.60;18.93;;;14.70;99.90;;;;;;5032563;28;20192;-71
2021/08/28 01:08:51;;;;;;;28.87;19.27;;;14.70;99.90;;;;;;5089645;28;20523;-70
2021/08/28 01:11:28;;;;;;;31.90;19.30;;;14.60;99.90;;;;;;5088061;28;20763;-70
2021/08/28 01:13:57;;;;;;;29.40;18.57;;;14.60;99.90;;;;;;5050278;28;20405;-70
2021/08/28 01:16:26;;;;;;;33.37;21.53;;;14.60;99.90;;;;;;5049893;28;20402;-70
2021/08/28 01:18:56;;;;;;;31.70;19.70;;;14.60;99.90;;;;;;5049823;28;20398;-70
2021/08/28 01:21:29;;;;;;;31.03;19.53;;;14.60;99.90;;;;;;5052616;28;20421;-70
2021/08/28 01:23:58;;;;;;;42.83;21.40;;;14.60;99.90;;;;;;5049466;28;20413;-70
2021/08/28 01:26:30;;;;;;;30.87;20.67;;;14.60;99.90;;;;;;5049373;28;20463;-70
2021/08/28 01:29:15;;;;;;;26.77;19.17;;;14.60;99.90;;;;;;5057722;28;20425;-70
2021/08/28 01:31:42;;;;;;;33.73;20.40;;;14.60;99.90;;;;;;5067574;28;20905;-71
2021/08/28 01:34:08;;;;;;;30.40;20.47;;;14.70;99.90;;;;;;5049842;28;20908;-70
2021/08/28 01:36:34;;;;;;;29.17;18.50;;;14.60;99.90;;;;;;5049357;28;20398;-71
2021/08/28 01:39:02;;;;;;;32.07;19.10;;;14.70;99.90;;;;;;5049333;28;20404;-70
2021/08/28 01:41:28;;;;;;;34.20;19.17;;;14.60;99.90;;;;;;5049340;28;20815;-70
2021/08/28 01:43:54;;;;;;;33.40;18.80;;;14.70;99.90;;;;;;5049084;28;20428;-70
2021/08/28 01:46:22;;;;;;;33.00;18.47;;;14.70;99.90;;;;;;5056495;28;20420;-70
2021/08/28 01:48:47;;;;;;;33.07;19.20;;;14.70;99.90;;;;;;5069086;28;20389;-70
2021/08/28 01:51:13;;;;;;;34.87;20.30;;;14.70;99.90;;;;;;5066966;28;20396;-70
2021/08/28 01:53:39;;;;;;;36.93;21.20;;;14.70;99.90;;;;;;5048995;28;20192;-71
2021/08/28 01:56:05;;;;;;;36.77;20.43;;;14.70;99.90;;;;;;5048958;28;20434;-70
2021/08/28 01:58:31;;;;;;;41.67;23.77;;;14.70;99.90;;;;;;5048941;28;20187;-70
2021/08/28 02:00:57;;;;;;;51.77;23.67;;;14.70;99.90;;;;;;5048894;28;20862;-70
2021/08/28 02:03:22;;;;;;;44.83;26.10;;;14.70;99.90;;;;;;5050377;28;20193;-70
2021/08/28 02:05:53;;;;;;;41.77;22.70;;;14.70;99.90;;;;;;5048867;28;20641;-70
2021/08/28 02:08:27;;;;;;;39.33;21.60;;;14.70;99.90;;;;;;5048649;28;20208;-70
2021/08/28 02:11:01;;;;;;;38.20;21.07;;;14.70;99.90;;;;;;5048603;28;20427;-70
2021/08/28 02:13:34;;;;;;;42.93;23.10;;;14.70;99.90;;;;;;5048812;28;20429;-70
2021/08/28 02:16:07;;;;;;;37.77;21.97;;;14.80;99.90;;;;;;5048721;28;20779;-70
2021/08/28 02:21:13;;;;;;;40.97;22.27;;;14.70;99.90;;;;;;5054466;28;20548;-71
2021/08/28 02:23:46;;;;;;;49.23;21.87;;;14.70;99.90;;;;;;5052140;28;20421;-71
2021/08/28 02:26:19;;;;;;;39.10;22.47;;;14.70;99.90;;;;;;5063622;28;20403;-71
2021/08/28 02:31:31;;;;;;;43.60;23.90;;;14.70;99.90;;;;;;5056520;28;20524;-72
2021/08/28 02:33:57;;;;;;;45.83;23.83;;;14.70;99.90;;;;;;5049895;28;20408;-72
2021/08/28 02:36:23;;;;;;;42.07;20.93;;;14.70;99.90;;;;;;5049067;28;20411;-72
2021/08/28 02:38:50;;;;;;;49.27;25.10;;;14.70;99.90;;;;;;5030435;28;20411;-72
2021/08/28 02:41:17;;;;;;;46.67;22.87;;;14.70;99.90;;;;;;5030257;28;20175;-72
2021/08/28 02:43:44;;;;;;;56.27;23.20;;;14.70;99.90;;;;;;5029800;28;20418;-72
2021/08/28 02:46:10;;;;;;;54.30;24.77;;;14.70;99.90;;;;;;5030039;28;20395;-72
2021/08/28 02:48:38;;;;;;;42.40;23.00;;;14.70;99.90;;;;;;5029793;28;20884;-72
2021/08/28 02:51:07;;;;;;;46.07;22.20;;;14.70;99.90;;;;;;5035720;28;20816;-72
2021/08/28 02:53:34;;;;;;;47.40;24.07;;;14.70;99.90;;;;;;5031514;28;20528;-72
2021/08/28 02:56:01;;;;;;;53.23;21.97;;;14.70;99.90;;;;;;5048525;28;20471;-72
2021/08/28 02:58:28;;;;;;;44.13;23.10;;;14.70;99.90;;;;;;5049969;28;20398;-73
2021/08/28 03:00:55;;;;;;;45.73;23.47;;;14.60;99.90;;;;;;5041946;28;20425;-73
2021/08/28 03:03:21;;;;;;;47.20;22.73;;;14.60;99.90;;;;;;5047029;28;20444;-73
2021/08/28 03:05:49;;;;;;;45.80;27.10;;;14.60;99.90;;;;;;5049628;28;20887;-73
2021/08/28 03:08:16;;;;;;;50.33;24.10;;;14.60;99.90;;;;;;5049276;28;20482;-73
2021/08/28 03:10:45;;;;;;;60.03;24.27;;;14.60;99.90;;;;;;5047886;28;20461;-73
2021/08/28 03:13:11;;;;;;;53.03;23.60;;;14.70;99.90;;;;;;5048205;28;20445;-73
2021/08/28 03:15:36;;;;;;;49.07;25.30;;;14.70;99.90;;;;;;5049158;28;20469;-73
2021/08/28 03:18:06;;;;;;;56.83;23.90;;;14.60;99.90;;;;;;5049317;28;20187;-73
2021/08/28 03:20:33;;;;;;;48.47;21.67;;;14.70;99.90;;;;;;5048278;28;20265;-73
2021/08/28 03:23:00;;;;;;;49.77;24.47;;;14.60;99.90;;;;;;5031470;28;20458;-73
2021/08/28 03:25:26;;;;;;;53.07;23.27;;;14.70;99.90;;;;;;5028934;28;20411;-73
2021/08/28 03:27:52;;;;;;;54.43;22.87;;;14.70;99.90;;;;;;5033680;28;20441;-73
2021/08/28 03:30:20;;;;;;;47.20;23.50;;;14.70;99.90;;;;;;5044160;28;20497;-73
2021/08/28 03:32:47;;;;;;;57.73;26.40;;;14.70;99.90;;;;;;5048625;28;20425;-73
2021/08/28 03:35:13;;;;;;;39.40;22.53;;;14.70;99.90;;;;;;5048954;28;20409;-73
2021/08/28 03:37:39;;;;;;;51.30;22.40;;;14.70;99.90;;;;;;5048717;28;20966;-73
2021/08/28 03:40:08;;;;;;;58.20;24.50;;;14.70;99.90;;;;;;5048651;28;20803;-73
2021/08/28 03:42:34;;;;;;;58.63;27.07;;;14.70;99.90;;;;;;5036046;28;20434;-73
2021/08/28 03:45:04;;;;;;;52.67;24.43;;;14.70;99.90;;;;;;5029649;28;20477;-73
2021/08/28 03:47:30;;;;;;;55.67;25.93;;;14.70;99.90;;;;;;5016184;28;20264;-73
2021/08/28 03:49:56;;;;;;;51.00;25.10;;;14.70;99.90;;;;;;5015299;28;20501;-73
2021/08/28 03:52:22;;;;;;;51.80;23.17;;;14.70;99.90;;;;;;5029432;28;20435;-73
2021/08/28 03:54:47;;;;;;;63.00;26.67;;;14.70;99.90;;;;;;5034798;28;20176;-73
2021/08/28 03:57:13;;;;;;;63.40;24.93;;;14.80;99.90;;;;;;5035210;28;20486;-73
2021/08/28 03:59:38;;;;;;;63.87;26.13;;;14.80;99.90;;;;;;5034891;28;20689;-73
2021/08/28 04:02:04;;;;;;;77.47;27.97;;;14.80;99.90;;;;;;5021518;28;20227;-73
2021/08/28 04:04:29;;;;;;;65.17;26.57;;;14.80;99.90;;;;;;5015785;28;20607;-73
2021/08/28 04:06:55;;;;;;;76.63;28.00;;;14.80;99.90;;;;;;5015203;28;20263;-73
2021/08/28 04:09:20;;;;;;;67.37;30.60;;;14.80;99.90;;;;;;5015260;28;20564;-73
2021/08/28 04:11:46;;;;;;;70.70;27.97;;;14.90;99.90;;;;;;5023482;28;20184;-73
2021/08/28 04:14:12;;;;;;;77.73;29.97;;;14.90;99.90;;;;;;5034860;28;20172;-73
2021/08/28 04:16:37;;;;;;;70.27;27.83;;;14.90;99.90;;;;;;5034975;28;20196;-73
2021/08/28 04:19:03;;;;;;;83.23;29.37;;;14.80;99.90;;;;;;5028387;28;20181;-73
2021/08/28 04:21:28;;;;;;;93.83;32.67;;;14.90;99.90;;;;;;5015186;28;20524;-73
2021/08/28 04:23:54;;;;;;;89.07;30.97;;;14.90;99.90;;;;;;5014992;28;20162;-73
2021/08/28 04:26:19;;;;;;;81.27;28.27;;;14.80;99.90;;;;;;5014838;28;20175;-73
2021/08/28 04:28:45;;;;;;;77.90;27.77;;;14.80;99.90;;;;;;5014497;28;20630;-73
2021/08/28 04:31:10;;;;;;;77.13;29.97;;;14.80;99.90;;;;;;5026457;28;20200;-73
2021/08/28 04:33:36;;;;;;;70.37;28.17;;;14.70;99.90;;;;;;5034501;28;20153;-73
2021/08/28 04:36:02;;;;;;;81.33;30.73;;;14.80;99.90;;;;;;5028249;28;20223;-73
2021/08/28 04:38:27;;;;;;;69.03;27.00;;;14.70;99.90;;;;;;5015103;28;20184;-73
2021/08/28 04:40:53;;;;;;;68.10;26.47;;;14.70;99.90;;;;;;5014397;28;20188;-73
2021/08/28 04:43:19;;;;;;;66.87;25.83;;;14.70;99.90;;;;;;5014637;28;20626;-73
2021/08/28 04:45:45;;;;;;;69.00;25.10;;;14.70;99.90;;;;;;5014893;28;20408;-73
2021/08/28 04:48:10;;;;;;;58.20;23.10;;;14.70;99.90;;;;;;5014228;28;20449;-73
2021/08/28 04:50:36;;;;;;;60.20;24.67;;;14.70;99.90;;;;;;5014256;28;20205;-73
2021/08/28 04:53:02;;;;;;;62.90;24.97;;;14.70;99.90;;;;;;5013781;28;20207;-73
2021/08/28 04:55:28;;;;;;;73.50;25.23;;;14.70;99.90;;;;;;5014786;28;20277;-73
2021/08/28 04:57:54;;;;;;;62.60;23.10;;;14.60;99.90;;;;;;5014037;28;20178;-73
2021/08/28 05:00:19;;;;;;;60.30;22.13;;;14.70;99.90;;;;;;5017396;28;20498;-73
2021/08/28 05:02:45;;;;;;;63.30;23.60;;;14.70;99.90;;;;;;5033859;28;20179;-73
2021/08/28 05:05:11;;;;;;;57.10;23.30;;;14.70;99.90;;;;;;5033727;28;20613;-73
2021/08/28 05:07:36;;;;;;;48.40;20.50;;;14.70;99.90;;;;;;5033675;28;20249;-73
2021/08/28 05:10:02;;;;;;;54.43;19.97;;;14.70;99.90;;;;;;5027002;28;20831;-73
2021/08/28 05:12:30;;;;;;;45.27;19.40;;;14.70;99.90;;;;;;5014320;28;20556;-73
2021/08/28 05:14:56;;;;;;;35.10;17.17;;;14.70;99.90;;;;;;5014822;28;20388;-73
2021/08/28 05:17:23;;;;;;;37.83;17.20;;;14.70;99.90;;;;;;5013653;28;20411;-73
2021/08/28 05:19:48;;;;;;;39.33;18.43;;;14.70;99.90;;;;;;5013836;28;20157;-73
2021/08/28 05:22:14;;;;;;;30.00;16.00;;;14.70;99.90;;;;;;5013157;28;20440;-73
2021/08/28 05:24:39;;;;;;;32.23;15.37;;;14.70;99.90;;;;;;5013803;28;20214;-73
2021/08/28 05:27:05;;;;;;;34.40;16.70;;;14.80;99.90;;;;;;5019311;28;20186;-73
2021/08/28 05:29:30;;;;;;;29.87;14.13;;;14.70;99.90;;;;;;5032951;28;20310;-73
2021/08/28 05:31:56;;;;;;;33.43;15.87;;;14.80;99.90;;;;;;5016565;28;20710;-73
2021/08/28 05:34:22;;;;;;;35.70;15.73;;;14.70;99.90;;;;;;5013826;28;20168;-73
2021/08/28 05:36:47;;;;;;;30.97;13.27;;;14.80;99.90;;;;;;5013386;28;20188;-73
2021/08/28 05:39:13;;;;;;;31.40;14.03;;;14.70;99.90;;;;;;5013765;28;20609;-73
2021/08/28 05:41:38;;;;;;;25.27;12.20;;;14.70;99.90;;;;;;5013280;28;20168;-73
2021/08/28 05:44:04;;;;;;;25.80;12.47;;;14.80;99.90;;;;;;5020222;28;20184;-73
2021/08/28 05:46:30;;;;;;;23.30;10.70;;;14.80;99.90;;;;;;5032766;28;20191;-73
2021/08/28 05:48:55;;;;;;;22.00;10.60;;;14.80;99.90;;;;;;5033272;28;20896;-73
2021/08/28 05:51:21;;;;;;;16.33;9.23;;;14.80;99.90;;;;;;5032079;28;20196;-73
2021/08/28 05:53:47;;;;;;;17.27;8.60;;;14.80;99.90;;;;;;5032957;28;20152;-73
2021/08/28 05:56:12;;;;;;;13.20;8.03;;;14.80;99.90;;;;;;5032912;28;20160;-73
2021/08/28 05:58:38;;;;;;;14.17;7.30;;;14.80;99.90;;;;;;5020614;28;20192;-73
2021/08/28 06:01:04;;;;;;;15.00;7.03;;;14.80;99.90;;;;;;5019418;28;20220;-73
2021/08/28 06:03:29;;;;;;;9.83;6.40;;;14.80;99.90;;;;;;5013554;28;20264;-73
2021/08/28 06:05:55;;;;;;;12.80;6.27;;;14.80;99.90;;;;;;5012953;28;20929;-73
2021/08/28 06:08:21;;;;;;;7.77;6.00;;;14.80;99.90;;;;;;5013142;28;20641;-73
2021/08/28 06:10:46;;;;;;;9.63;7.83;;;14.80;99.90;;;;;;5014016;28;20216;-73
2021/08/28 06:13:12;;;;;;;11.63;8.87;;;14.80;99.90;;;;;;5013611;28;20707;-73
2021/08/28 06:15:37;;;;;;;10.80;8.40;;;14.70;99.90;;;;;;5012996;28;20174;-73
2021/08/28 06:18:03;;;;;;;12.50;7.87;;;14.70;99.90;;;;;;5019002;28;20179;-73
2021/08/28 06:20:29;;;;;;;11.60;8.90;;;14.70;99.90;;;;;;5029863;28;20183;-73
2021/08/28 06:22:54;;;;;;;6.80;5.43;;;14.70;99.90;;;;;;5012890;28;20624;-73
2021/08/28 06:25:20;;;;;;;8.97;5.53;;;14.70;99.90;;;;;;5012477;28;20214;-73
2021/08/28 06:27:45;;;;;;;5.93;5.33;;;14.70;99.90;;;;;;5013423;28;20171;-73
2021/08/28 06:30:12;;;;;;;10.53;6.17;;;14.70;99.90;;;;;;5022621;28;20215;-73
2021/08/28 06:32:38;;;;;;;4.87;4.37;;;14.70;99.90;;;;;;5018055;28;20261;-73
2021/08/28 06:35:04;;;;;;;8.70;5.50;;;14.70;99.90;;;;;;5031439;28;20895;-73
2021/08/28 06:37:29;;;;;;;6.37;3.53;;;14.70;99.90;;;;;;5031476;28;20275;-73
2021/08/28 06:39:55;;;;;;;5.13;4.20;;;14.70;99.90;;;;;;5032370;28;20551;-73
2021/08/28 06:42:20;;;;;;;7.07;3.90;;;14.70;99.90;;;;;;5014387;28;20184;-73
2021/08/28 06:44:46;;;;;;;6.73;4.80;;;14.60;99.90;;;;;;5012654;28;20165;-73
2021/08/28 06:47:11;;;;;;;9.83;5.40;;;14.60;99.90;;;;;;5012733;28;20171;-73
2021/08/28 06:49:37;;;;;;;9.73;4.47;;;14.60;99.90;;;;;;5012647;28;20199;-73
2021/08/28 06:52:03;;;;;;;7.67;5.13;;;14.60;99.90;;;;;;5013349;28;20180;-73
2021/08/28 06:54:28;;;;;;;7.00;5.53;;;14.60;99.90;;;;;;5013301;28;20188;-73
2021/08/28 06:56:54;;;;;;;8.50;5.27;;;14.60;99.90;;;;;;5013144;28;20167;-73
2021/08/28 06:59:19;;;;;;;15.80;11.40;;;14.60;99.90;;;;;;5012765;28;20196;-73
2021/08/28 07:01:45;;;;;;;14.27;11.93;;;14.60;99.90;;;;;;5024213;28;20225;-73
2021/08/28 07:04:11;;;;;;;16.87;13.10;;;14.60;99.90;;;;;;5032226;28;20156;-73
2021/08/28 07:06:36;;;;;;;20.00;15.07;;;14.60;99.90;;;;;;5032138;28;20161;-73
2021/08/28 07:09:03;;;;;;;18.23;14.80;;;14.70;99.90;;;;;;5025848;28;20189;-73
2021/08/28 07:11:29;;;;;;;25.33;16.30;;;14.80;99.90;;;;;;5023046;28;20581;-73
2021/08/28 07:13:54;;;;;;;20.80;16.13;;;14.80;99.90;;;;;;5032119;28;20402;-73
2021/08/28 07:16:20;;;;;;;24.77;17.60;;;14.90;99.90;;;;;;5032786;28;20406;-73
2021/08/28 07:18:46;;;;;;;19.30;15.40;;;14.90;99.90;;;;;;5035889;28;20703;-73
2021/08/28 07:21:11;;;;;;;24.07;16.07;;;14.90;99.90;;;;;;5028708;28;20191;-73
2021/08/28 07:23:37;;;;;;;21.40;16.20;;;15.00;99.90;;;;;;5015743;28;20188;-72
2021/08/28 07:26:03;;;;;;;21.57;16.47;;;14.90;99.90;;;;;;5022797;28;20519;-72
2021/08/28 07:28:29;;;;;;;23.90;15.40;;;14.90;99.90;;;;;;5020265;28;20182;-72
2021/08/28 07:30:54;;;;;;;23.80;16.57;;;15.00;99.90;;;;;;5015685;28;20466;-72
2021/08/28 07:33:20;;;;;;;22.30;15.10;;;15.00;99.90;;;;;;5015780;28;20247;-72
2021/08/28 07:35:46;;;;;;;26.90;16.03;;;14.90;99.90;;;;;;5015970;28;20170;-73
2021/08/28 07:38:11;;;;;;;22.50;16.33;;;14.90;99.90;;;;;;5015823;28;20165;-73
2021/08/28 07:40:37;;;;;;;19.80;15.80;;;14.90;99.90;;;;;;5016143;28;20179;-73
2021/08/28 07:43:03;;;;;;;18.67;12.77;;;14.80;99.90;;;;;;5016090;28;20216;-73
2021/08/28 07:45:28;;;;;;;15.20;12.87;;;14.90;99.90;;;;;;5016073;28;20546;-73
2021/08/28 07:47:55;;;;;;;17.50;11.90;;;14.90;99.90;;;;;;5015320;28;20184;-73
2021/08/28 07:50:21;;;;;;;18.43;11.50;;;15.00;99.90;;;;;;5015545;28;20537;-73
2021/08/28 07:52:46;;;;;;;14.33;11.20;;;15.00;99.90;;;;;;5018876;28;20422;-73
2021/08/28 07:55:13;;;;;;;10.07;8.97;;;15.10;99.90;;;;;;5035523;28;20238;-73
2021/08/28 07:57:40;;;;;;;11.00;8.03;;;15.10;99.90;;;;;;5028540;28;20206;-73
2021/08/28 08:00:08;;;;;;;8.90;7.93;;;15.10;99.90;;;;;;5024098;28;20822;-73
2021/08/28 08:02:35;;;;;;;12.63;8.67;;;15.10;99.90;;;;;;5015625;28;20834;-73
2021/08/28 08:05:01;;;;;;;11.07;8.13;;;15.00;99.90;;;;;;5015405;28;20399;-73
2021/08/28 08:07:26;;;;;;;10.73;8.27;;;15.00;99.90;;;;;;5015073;28;20403;-73
2021/08/28 08:09:52;;;;;;;15.07;9.23;;;15.00;99.90;;;;;;5015455;28;20501;-73
2021/08/28 08:12:17;;;;;;;11.60;9.60;;;15.00;99.90;;;;;;5015003;28;20186;-73
2021/08/28 08:14:43;;;;;;;16.50;9.20;;;15.00;99.90;;;;;;5015043;28;20271;-73
2021/08/28 08:17:09;;;;;;;10.43;7.20;;;15.00;99.90;;;;;;5021713;28;20186;-73
2021/08/28 08:19:35;;;;;;;11.27;8.57;;;15.10;99.90;;;;;;5019812;28;20230;-73
2021/08/28 08:22:00;;;;;;;14.23;8.93;;;15.10;99.90;;;;;;5015067;28;20450;-73
2021/08/28 08:24:26;;;;;;;16.13;8.90;;;15.10;99.90;;;;;;5015514;28;20170;-73
2021/08/28 08:26:52;;;;;;;12.50;8.30;;;15.10;99.90;;;;;;5032041;28;20180;-73
2021/08/28 08:29:17;;;;;;;12.87;9.17;;;15.10;99.90;;;;;;5033621;28;20198;-73
2021/08/28 08:31:43;;;;;;;14.00;10.53;;;15.20;99.90;;;;;;5028220;28;20607;-73
2021/08/28 08:34:09;;;;;;;15.77;10.17;;;15.20;99.90;;;;;;5022825;28;20538;-73
2021/08/28 08:36:34;;;;;;;14.53;10.47;;;15.20;99.90;;;;;;5034195;28;20204;-73
2021/08/28 08:39:00;;;;;;;14.20;10.27;;;15.20;99.90;;;;;;5035032;28;20155;-73
2021/08/28 08:41:29;;;;;;;12.23;9.63;;;15.20;99.90;;;;;;5034317;28;20706;-73
2021/08/28 08:43:56;;;;;;;18.63;11.43;;;15.20;99.90;;;;;;5034185;28;20179;-73
2021/08/28 08:46:23;;;;;;;15.30;9.80;;;15.20;99.90;;;;;;5027402;28;20526;-73
2021/08/28 08:48:50;;;;;;;16.00;9.90;;;15.20;99.90;;;;;;5014374;28;20392;-72
2021/08/28 08:51:18;;;;;;;15.87;10.93;;;15.20;99.90;;;;;;5015395;28;20464;-72
2021/08/28 08:53:45;;;;;;;14.60;10.80;;;15.20;99.90;;;;;;5014803;28;20398;-72
2021/08/28 08:56:11;;;;;;;15.40;10.27;;;15.20;99.90;;;;;;5023564;28;20961;-73
2021/08/28 08:58:38;;;;;;;16.13;11.20;;;15.30;99.90;;;;;;5034166;28;20434;-73
2021/08/28 09:01:05;;;;;;;18.40;10.47;;;15.20;99.90;;;;;;5033825;28;20413;-73
2021/08/28 09:03:30;;;;;;;14.37;10.50;;;15.30;99.90;;;;;;5033353;28;20438;-73
2021/08/28 09:05:56;;;;;;;13.30;10.17;;;15.30;99.90;;;;;;5033953;28;20793;-73
2021/08/28 09:08:22;;;;;;;14.37;10.77;;;15.30;99.90;;;;;;5025766;28;20733;-73
2021/08/28 09:10:48;;;;;;;15.90;10.80;;;15.30;99.90;;;;;;5013859;28;20440;-73
2021/08/28 09:16:01;;;;;;;21.10;10.63;;;15.40;99.90;;;;;;5069802;28;20539;-73
2021/08/28 09:18:27;;;;;;;15.37;10.67;;;15.40;99.90;;;;;;5070080;28;20468;-73
2021/08/28 09:20:55;;;;;;;17.00;9.83;;;15.50;99.90;;;;;;5069956;28;20473;-73
2021/08/28 09:23:21;;;;;;;18.60;11.00;;;15.60;99.90;;;;;;5053554;28;20825;-73
2021/08/28 09:25:48;;;;;;;20.60;11.90;;;15.70;99.90;;;;;;5051115;28;20430;-73
2021/08/28 09:28:15;;;;;;;13.67;9.93;;;15.80;99.90;;;;;;5049664;28;20287;-73
2021/08/28 09:30:44;;;;;;;15.30;9.97;;;15.90;99.90;;;;;;5049582;28;20407;-73
2021/08/28 09:33:13;;;;;;;15.93;11.57;;;16.10;99.90;;;;;;5049834;28;20780;-73
2021/08/28 09:38:19;;;;;;;21.03;11.80;;;16.20;99.90;;;;;;5069992;28;20542;-73
2021/08/28 09:40:54;;;;;;;22.53;13.93;;;16.70;99.90;;;;;;5069792;28;20391;-73
2021/08/28 09:43:21;;;;;;;17.43;12.53;;;16.90;99.90;;;;;;5053204;28;20850;-73
2021/08/28 09:45:49;;;;;;;21.07;12.90;;;17.20;99.90;;;;;;5049753;28;20387;-73
2021/08/28 09:48:16;;;;;;;18.30;12.57;;;17.30;99.90;;;;;;5049768;28;20391;-73
2021/08/28 09:50:46;;;;;;;17.10;13.10;;;17.40;99.90;;;;;;5049831;28;20944;-73
2021/08/28 09:53:14;;;;;;;17.40;12.50;;;17.40;99.90;;;;;;5062768;28;20413;-73
2021/08/28 09:55:41;;;;;;;17.00;12.07;;;17.50;99.90;;;;;;5060553;28;20405;-73
2021/08/28 09:58:10;;;;;;;19.90;12.77;;;17.60;99.90;;;;;;5049389;28;20452;-73
2021/08/28 10:00:42;;;;;;;16.70;13.03;;;17.70;99.90;;;;;;5050521;28;20490;-73
2021/08/28 10:03:08;;;;;;;16.67;12.60;;;17.70;99.90;;;;;;5049586;28;20393;-73
2021/08/28 10:05:35;;;;;;;16.20;10.60;;;17.70;99.90;;;;;;5049313;28;20421;-73
2021/08/28 10:08:05;;;;;;;14.30;10.90;;;17.70;99.90;;;;;;5049272;28;20422;-73
2021/08/28 10:10:32;;;;;;;12.30;10.97;;;17.60;99.90;;;;;;5049206;28;20442;-73
2021/08/28 10:13:00;;;;;;;12.10;8.97;;;17.60;99.90;;;;;;5049692;28;20467;-73
2021/08/28 10:15:27;;;;;;;14.37;11.33;;;17.50;99.90;;;;;;5049844;28;20392;-73
2021/08/28 10:17:56;;;;;;;16.53;10.50;;;17.40;99.90;;;;;;5049731;28;20454;-73
2021/08/28 10:20:22;;;;;;;13.57;9.30;;;17.30;99.90;;;;;;5049478;28;20383;-73
2021/08/28 10:22:51;;;;;;;13.10;10.20;;;17.20;99.90;;;;;;5048961;28;20461;-73
2021/08/28 10:25:19;;;;;;;16.77;10.20;;;17.10;99.90;;;;;;5051280;28;20426;-73
2021/08/28 10:27:46;;;;;;;22.07;11.17;;;17.00;99.90;;;;;;5068959;28;20756;-73
2021/08/28 10:30:13;;;;;;;12.37;9.97;;;17.00;99.90;;;;;;5049648;28;20435;-73
2021/08/28 10:32:40;;;;;;;12.90;9.83;;;16.90;99.90;;;;;;5065746;28;20413;-73
2021/08/28 10:35:07;;;;;;;13.60;10.23;;;16.90;99.90;;;;;;5049662;28;20418;-73
2021/08/28 10:37:33;;;;;;;11.57;9.80;;;16.90;99.90;;;;;;5048760;28;20492;-73
2021/08/28 10:39:59;;;;;;;14.63;10.10;;;17.00;99.90;;;;;;5048767;28;20395;-73
2021/08/28 10:42:30;;;;;;;13.13;10.03;;;17.00;99.90;;;;;;5048951;28;20631;-73
2021/08/28 10:45:00;;;;;;;18.13;10.90;;;17.10;99.90;;;;;;5048814;28;20391;-73
2021/08/28 10:47:29;;;;;;;11.63;9.47;;;17.10;99.90;;;;;;5048177;28;20482;-73
2021/08/28 10:49:57;;;;;;;12.70;10.10;;;17.20;99.90;;;;;;5035847;28;20767;-73
2021/08/28 10:52:25;;;;;;;15.60;9.47;;;17.40;99.90;;;;;;5035996;28;20465;-73
2021/08/28 10:55:09;;;;;;;12.10;9.33;;;17.60;99.90;;;;;;5035139;28;20432;-73
2021/08/28 10:57:36;;;;;;;11.30;9.27;;;17.70;99.90;;;;;;5035477;28;20546;-73
2021/08/28 11:02:59;;;;;;;12.33;9.53;;;17.80;99.90;;;;;;5069905;28;20516;-72
2021/08/28 11:05:28;;;;;;;11.97;8.90;;;17.90;99.90;;;;;;5069273;28;20392;-72
2021/08/28 11:07:56;;;;;;;12.27;8.57;;;18.00;99.90;;;;;;5056676;28;20418;-72
2021/08/28 11:10:24;;;;;;;10.27;9.17;;;18.00;99.90;;;;;;5050007;28;20394;-72
2021/08/28 11:13:06;;;;;;;9.43;6.83;;;18.10;99.90;;;;;;5050038;28;20819;-72
2021/08/28 11:18:12;;;;;;;8.70;7.70;;;18.10;99.90;;;;;;5070477;28;20516;-73
2021/08/28 11:23:21;;;;;;;14.97;8.03;;;18.10;99.90;;;;;;5069529;28;21154;-72
2021/08/28 11:25:49;;;;;;;7.80;6.83;;;17.90;99.90;;;;;;5044272;28;20832;-71
2021/08/28 11:28:20;;;;;;;7.53;6.73;;;17.70;99.90;;;;;;5049854;28;20395;-71
2021/08/28 11:33:27;;;;;;;9.13;7.77;;;17.70;99.90;;;;;;5131173;27;20517;-71
2021/08/28 11:38:50;;;;;;;8.03;6.60;;;17.40;99.90;;;;;;5172589;27;20506;-73
2021/08/28 11:43:56;;;;;;;9.90;7.37;;;17.50;99.90;;;;;;5110532;27;20502;-71
2021/08/28 11:49:00;;;;;;;8.10;7.20;;;17.70;99.90;;;;;;5053759;28;20602;-72
2021/08/28 11:51:26;;;;;;;9.60;7.53;;;17.70;99.90;;;;;;5049832;28;20382;-72
2021/08/28 11:53:54;;;;;;;7.70;6.47;;;17.70;99.90;;;;;;5049941;28;20160;-72
2021/08/28 11:56:22;;;;;;;10.17;7.30;;;17.80;99.90;;;;;;5049848;28;20427;-72
2021/08/28 11:59:02;;;;;;;7.03;5.27;;;17.90;99.90;;;;;;5037693;28;20467;-72
2021/08/28 12:01:43;;;;;;;10.57;4.70;;;17.90;99.90;;;;;;5042789;28;20438;-72
2021/08/28 12:04:12;;;;;;;6.40;5.30;;;17.90;99.90;;;;;;5049788;28;20495;-72
2021/08/28 12:06:40;;;;;;;5.17;4.40;;;17.90;99.90;;;;;;5049378;28;20407;-72
2021/08/28 12:09:08;;;;;;;6.13;4.93;;;17.90;99.90;;;;;;5048272;28;20509;-72
2021/08/28 12:11:37;;;;;;;5.37;4.70;;;18.00;99.90;;;;;;5049323;28;20423;-72
2021/08/28 12:14:04;;;;;;;5.40;4.90;;;18.10;99.90;;;;;;5049475;28;20482;-72
2021/08/28 12:16:33;;;;;;;6.27;5.67;;;18.20;99.90;;;;;;5048194;28;20791;-72
2021/08/28 12:19:04;;;;;;;7.27;5.70;;;18.40;99.90;;;;;;5049240;28;20474;-72
2021/08/28 12:21:32;;;;;;;4.83;4.33;;;18.60;99.90;;;;;;5049460;28;20425;-72
2021/08/28 12:24:11;;;;;;;5.63;4.67;;;18.70;99.90;;;;;;5048821;28;20910;-72
2021/08/28 12:26:37;;;;;;;8.60;4.20;;;18.70;99.90;;;;;;5048794;28;20454;-72
2021/08/28 12:29:03;;;;;;;7.23;4.93;;;18.70;99.90;;;;;;5030596;28;20912;-72
2021/08/28 12:31:31;;;;;;;5.20;4.70;;;18.60;99.90;;;;;;5034500;28;20578;-72
2021/08/28 12:34:02;;;;;;;6.00;4.67;;;18.60;99.90;;;;;;5048384;28;20442;-72
2021/08/28 12:36:31;;;;;;;5.10;4.70;;;18.60;99.90;;;;;;5049210;28;20387;-72
2021/08/28 12:39:01;;;;;;;4.90;4.50;;;18.60;99.90;;;;;;5048996;28;20403;-72
2021/08/28 12:41:27;;;;;;;5.30;4.80;;;18.80;99.90;;;;;;5048967;28;20485;-72
2021/08/28 12:43:53;;;;;;;4.83;3.93;;;18.90;99.90;;;;;;5048907;28;20474;-72
2021/08/28 12:46:18;;;;;;;4.47;4.17;;;18.90;99.90;;;;;;5049254;28;20167;-72
2021/08/28 12:49:13;;;;;;;8.07;6.17;;;18.90;99.90;;;;;;5047839;28;20216;-72
2021/08/28 12:52:07;;;;;;;6.10;4.43;;;18.90;99.90;;;;;;5047537;28;20179;-72
2021/08/28 12:54:36;;;;;;;4.80;4.40;;;18.80;99.90;;;;;;5048438;28;20410;-72
2021/08/28 12:59:45;;;;;;;5.43;4.93;;;18.70;99.90;;;;;;5127163;27;20532;-72
2021/08/28 13:02:22;;;;;;;5.00;4.50;;;18.70;99.90;;;;;;5110584;28;20412;-72
2021/08/28 13:04:49;;;;;;;6.70;5.00;;;18.70;99.90;;;;;;5110336;28;20384;-72